Flight Track Log - Related Links

Times and Time Zones

All times are in EDT time to prevent confusion due to time zone crossing. See the N877PM flight status page for this flight to view local times or setup timezone preferences in your user account.

Time Position Orientation Groundspeed Altitude Reporting Facility
EDT Latitude Longitude Course Direction KTS MPH feet Rate Location/Type
Wed 19:56:06 34.2722 -77.8136 22° Northeast 197 227 3,800  Level Washington Center
Wed 19:57:07 34.3228 -77.7872 23° Northeast 207 238 5,700 1,884 Climbing Washington Center
Wed 19:58:07 34.3733 -77.7608 23° Northeast 195 224 7,600 1,736 Climbing Washington Center
Wed 19:59:08 34.4239 -77.7347 23° Northeast 195 224 9,200 1,613 Climbing Washington Center
Wed 20:00:00 34.7180 -77.6542 19° North  Level FlightAware Approximate
Wed 20:00:06 34.4744 -77.7083 23° Northeast 195 224 10,800  Level Washington Center
Wed 20:01:00 34.7954 -77.6190 22° Northeast  Level FlightAware Approximate
Wed 20:01:06 34.5161 -77.7042 North 195 224 12,100  Level Washington Center
Wed 20:02:07 34.5808 -77.7058 359° North 183 211 14,000 1,636 Climbing Washington Center
Wed 20:03:07 34.6308 -77.7097 356° North 178 205 15,400 1,289 Climbing Washington Center
Wed 20:04:08 34.6853 -77.7061 North 178 205 16,600 1,091 Climbing Washington Center
Wed 20:05:08 34.7397 -77.6922 12° North 188 216 17,600 1,017 Climbing Washington Center
Wed 20:06:06 34.7939 -77.6886 North 193 222 18,600 1,008 Climbing Washington Center
Wed 20:07:07 34.8483 -77.6900 359° North 193 222 19,600 1,000 Climbing Washington Center
Wed 20:08:06 34.9044 -77.6942 357° North 193 222 20,600 958 Climbing Washington Center
Wed 20:09:06 34.9608 -77.6981 357° North 198 228 21,500 843 Climbing Washington Center
Wed 20:10:07 35.0131 -77.6969 North 198 228 22,300 793 Climbing Washington Center
Wed 20:11:07 35.0714 -77.7008 357° North 203 234 23,100 843 Climbing Washington Center
Wed 20:12:08 35.1297 -77.7050 357° North 203 234 24,000 1,008 Climbing Washington Center
Wed 20:13:06 35.1881 -77.7064 359° North 203 234 25,100 958 Climbing Washington Center
Wed 20:14:07 35.2442 -77.7106 357° North 203 234 25,900 793 Climbing Washington Center
Wed 20:15:07 35.3028 -77.7122 359° North 203 234 26,700 893 Climbing Washington Center
Wed 20:16:08 35.3631 -77.7161 357° North 203 234 27,700 942 Climbing Washington Center
Wed 20:17:08 35.4172 -77.7203 356° North 203 234 28,600 650 Climbing Washington Center
Wed 20:18:08 35.4758 -77.7192 North 203 234 29,000 202 Climbing Washington Center
Wed 20:19:07 35.5444 -77.7261 355° North 215 247 29,000 3,000 Level Washington Center
Wed 20:20:08 35.6153 -77.7281 359° North 243 280 35,000  Climbing Washington Center
Wed 20:21:08 35.6967 -77.7328 357° North 268 308 29,000 -3,000 Descending Washington Center
Wed 20:22:08 35.7800 -77.7375 357° North 282 325 29,000  Level Washington Center
Wed 20:23:06 35.8656 -77.7397 359° North 295 339 29,000  Level Washington Center
Wed 20:24:07 35.9531 -77.7475 356° North 305 351 29,000  Level Washington Center
Wed 20:25:07 36.0406 -77.7522 358° North 310 357 29,000 198 Level Washington Center
Wed 20:26:08 36.1283 -77.7547 359° North 310 357 29,400 694 Climbing Washington Center
Wed 20:27:08 36.2075 -77.7594 357° North 299 344 30,400 1,017 Climbing Washington Center
Wed 20:28:06 36.2825 -77.7642 357° North 280 322 31,400 966 Climbing Washington Center
Wed 20:29:06 36.3533 -77.7661 359° North 261 300 32,300 942 Climbing Washington Center
Wed 20:30:07 36.4200 -77.7706 357° North 248 285 33,300 738 Climbing Washington Center
Wed 20:31:08 36.4806 -77.7747 357° North 224 258 33,800 496 Climbing Washington Center
Wed 20:32:08 36.5431 -77.7792 357° North 219 252 34,300 458 Climbing Washington Center
Wed 20:33:06 36.6117 -77.7836 357° North 225 259 34,700 353 Climbing Washington Center
Wed 20:34:07 36.6786 -77.7828 North 231 266 35,000 148 Climbing Washington Center
Wed 20:35:08 36.7514 -77.7903 355° North 244 281 35,000  Level Washington Center
Wed 20:36:08 36.8347 -77.7950 357° North 272 313 35,000  Level Washington Center
Wed 20:37:07 36.9144 -77.7689 15° North 295 339 35,000  Level Washington Center
Wed 20:38:07 37.0008 -77.7192 25° Northeast 307 353 35,000  Level Washington Center
Wed 20:39:07 37.0978 -77.6647 24° Northeast 329 379 35,000  Level Washington Center
Wed 20:40:08 37.1864 -77.6150 24° Northeast 340 391 35,000  Level Washington Center
Wed 20:41:09 37.2747 -77.5675 23° Northeast 340 391 35,000  Level Washington Center
Wed 20:42:07 37.3653 -77.5150 25° Northeast 340 391 35,000  Level Washington Center
Wed 20:43:07 37.4558 -77.4650 24° Northeast 340 391 35,000  Level Washington Center
Wed 20:44:08 37.5464 -77.4122 25° Northeast 340 391 35,000  Level Washington Center
Wed 20:45:08 37.6367 -77.3619 24° Northeast 340 391 35,000  Level Washington Center
Wed 20:46:06 37.7272 -77.3089 25° Northeast 340 391 35,000  Level Washington Center
Wed 20:47:07 37.8156 -77.2583 24° Northeast 340 391 35,000  Level Washington Center
Wed 20:48:07 37.9058 -77.2078 24° Northeast 345 397 35,000 -393 Level Washington Center
Wed 20:49:09 37.9942 -77.1436 30° Northeast 345 397 34,200 -1,462 Descending Washington Center
Wed 20:50:06 38.0850 -77.0717 32° Northeast 357 411 32,100 -1,831 Descending Washington Center
Wed 20:51:07 38.1753 -76.9994 32° Northeast 371 427 30,600 -1,525 Descending Washington Center
Wed 20:52:08 38.2639 -76.9297 32° Northeast 371 427 29,000 -1,537 Descending Washington Center
Wed 20:53:08 38.3458 -76.8678 31° Northeast 361 415 27,500 -1,525 Descending Washington Center
Wed 20:54:06 38.4236 -76.8108 30° Northeast 356 410 26,000 -1,525 Descending Washington Center
Wed 20:55:06 38.5033 -76.7458 33° Northeast 349 402 24,500 -992 Descending Washington Center
Wed 20:56:07 38.5853 -76.6806 32° Northeast 343 395 24,000 -246 Descending Washington Center
Wed 20:57:08 38.6672 -76.6181 31° Northeast 343 395 24,000  Level Washington Center
Wed 20:58:06 38.7489 -76.5500 33° Northeast 343 395 24,000  Level Washington Center
Wed 20:59:06 38.8308 -76.4844 32° Northeast 343 395 24,000  Level Washington Center
Wed 21:00:07 38.9147 -76.4214 30° Northeast 343 395 24,000  Level Washington Center
Wed 21:01:08 38.9942 -76.3556 33° Northeast 343 395 24,000  Level Washington Center
Wed 21:02:06 39.0761 -76.2922 31° Northeast 343 395 24,000  Level Washington Center
Wed 21:03:06 39.1556 -76.2258 33° Northeast 343 395 24,000  Level Washington Center
Wed 21:04:07 39.2269 -76.1408 43° Northeast 338 389 24,000 -298 Level Washington Center
Wed 21:05:07 39.3022 -76.0608 39° Northeast 343 395 23,400 -1,339 Descending Washington Center
Wed 21:06:08 39.3858 -75.9808 36° Northeast 358 412 21,300 -2,100 Descending Washington Center
Wed 21:07:47 39.5500 -75.8333 35° Northeast 388 447 17,800 -1,925 Descending Philadelphia TRACON
Wed 21:08:47 39.6333 -75.7500 38° Northeast 353 406 16,200 -2,033 Descending Philadelphia TRACON
Wed 21:09:48 39.7000 -75.6833 38° Northeast 323 372 13,700 -1,524 Descending Philadelphia TRACON
Wed 21:10:53 39.7833 -75.6167 32° Northeast 318 366 13,000 -336 Descending Philadelphia TRACON
Wed 21:11:53 39.8500 -75.5500 38° Northeast 320 368 13,000  Level Philadelphia TRACON
Wed 21:12:53 39.9333 -75.4833 32° Northeast 322 371 13,000  Level Philadelphia TRACON
Wed 21:13:54 40.0000 -75.4167 37° Northeast 320 368 13,000  Level Philadelphia TRACON
Wed 21:14:54 40.0667 -75.3500 37° Northeast 322 371 13,000  Level Philadelphia TRACON
Wed 21:15:54 40.1500 -75.2833 31° Northeast 320 368 13,000 -905 Level Philadelphia TRACON
Wed 21:17:00 40.2333 -75.2000 37° Northeast 339 390 11,100 -1,157 Descending Philadelphia TRACON
Wed 21:18:14 40.3167 -75.1167 37° Northeast 297 342 10,300 -1,567 Descending New York TRACON
Wed 21:19:14 40.3667 -75.0500 45° Northeast 297 342 7,600 -1,800 Descending New York TRACON
Wed 21:20:14 40.4167 -74.9667 52° Northeast 260 299 6,700 -1,617 Descending New York TRACON
Wed 21:21:09 40.4667 -74.9167 37° Northeast 262 302 4,500 -1,350 Descending New York TRACON
Wed 21:22:14 40.5167 -74.8333 52° Northeast 259 298 4,000 -238 Descending New York TRACON
Wed 21:23:15 40.5667 -74.7667 45° Northeast 238 274 4,000  Level New York TRACON
Wed 21:24:15 40.6167 -74.7167 37° Northeast 224 258 4,000  Level New York TRACON
Wed 21:25:21 40.6833 -74.6667 30° Northeast 259 298 4,000  Level New York TRACON
Wed 21:26:21 40.7333 -74.6333 27° Northeast 248 285 4,000 -350 Level New York TRACON
Wed 21:27:21 40.8000 -74.5667 37° Northeast 255 293 3,300 -500 Descending New York TRACON
Wed 21:28:21 40.8500 -74.5167 37° Northeast 239 275 3,000 -150 Descending New York TRACON
Wed 21:29:21 40.9000 -74.4500 45° Northeast 244 281 3,000  Level New York TRACON
Wed 21:30:21 40.9333 -74.3667 62° Northeast 251 289 3,000  Level New York TRACON
Wed 21:31:15 40.9333 -74.3000 90° East 232 267 3,000 -526 Level New York TRACON
Wed 21:32:15 40.9333 -74.2000 90° East 246 283 2,000 -500 Descending New York TRACON
Wed 21:33:15 40.9333 -74.1167 90° East 232 267 2,000 -400 Level New York TRACON
Wed 21:34:15 40.8833 -74.0833 153° Southeast 158 182 1,200 -900 Descending New York TRACON
Wed 21:35:15 40.8667 -74.0500 123° Southeast 109 125 200 -1,000 Descending New York TRACON
Wed 21:37:00 40.8500 -74.0500 99° East  Level FlightAware Approximate

Login

Don't have an account? Register now (free) for customized features, flight alerts, and more!